Time;durP1;ratioP1;P1;durP2;ratioP2;P2;SDS_P1;SDS_P2;PMS_P1;PMS_P2;Temp;Humidity;BMP_temperature;BMP_pressure;BME280_temperature;BME280_humidity;BME280_pressure;Samples;Min_cycle;Max_cycle;Signal;HPM_P1;HPM_P2
2023/06/22 00:01:25;;;;;;;19.23;14.35;;;;;;;;;;8247211;28;20057;-96
2023/06/22 00:05:30;;;;;;;20.70;14.10;;;;;;;;;;8252057;28;20406;-95
2023/06/22 00:09:37;;;;;;;19.63;13.43;;;;;;;;;;8246686;28;20108;-96
2023/06/22 00:13:41;;;;;;;20.98;13.48;;;;;;;;;;8240674;28;20058;-96
2023/06/22 00:17:48;;;;;;;22.25;14.48;;;;;;;;;;8250794;28;20154;-96
2023/06/22 00:31:03;;;;;;;24.63;16.52;;;;;;;;;;8933738;23;4300020;-96
2023/06/22 00:35:09;;;;;;;29.85;16.45;;;;;;;;;;8246982;28;20479;-96
2023/06/22 00:39:12;;;;;;;30.92;19.33;;;;;;;;;;8242886;28;20062;-96
2023/06/22 00:43:16;;;;;;;26.13;16.90;;;;;;;;;;8246217;28;20058;-96
2023/06/22 00:47:30;;;;;;;26.92;16.90;;;;;;;;;;8226228;28;20085;-96
2023/06/22 00:51:37;;;;;;;37.03;20.95;;;;;;;;;;8234739;28;20051;-96
2023/06/22 00:55:51;;;;;;;40.33;19.92;;;;;;;;;;8245580;28;20126;-96
2023/06/22 01:04:50;;;;;;;38.53;20.27;;;;;;;;;;8256071;28;20550;-96
2023/06/22 01:09:15;;;;;;;39.35;19.90;;;;;;;;;;8253879;28;20055;-96
2023/06/22 01:34:46;;;;;;;52.67;23.33;;;;;;;;;;7887510;30;20043;-96
2023/06/22 01:38:57;;;;;;;43.35;22.45;;;;;;;;;;7932793;29;20059;-95
2023/06/22 01:48:32;;;;;;;36.35;20.25;;;;;;;;;;7937983;29;20161;-95
2023/06/22 01:58:24;;;;;;;43.30;22.80;;;;;;;;;;8083719;29;20079;-95
2023/06/22 03:23:18;;;;;;;36.03;20.95;;;;;;;;;;7779587;30;20273;-96
2023/06/22 03:59:25;;;;;;;37.63;19.52;;;;;;;;;;7755149;30;20061;-96
2023/06/22 04:14:46;;;;;;;31.05;21.83;;;;;;;;;;7904089;30;20055;-95
2023/06/22 04:58:13;;;;;;;36.25;26.27;;;;;;;;;;8230359;28;20495;-96
2023/06/22 05:28:11;;;;;;;36.03;26.33;;;;;;;;;;8410162;23;20488;-96
2023/06/22 05:32:40;;;;;;;36.03;27.25;;;;;;;;;;8210485;29;20601;-95
2023/06/22 05:36:46;;;;;;;36.38;27.20;;;;;;;;;;8200113;23;20520;-96
2023/06/22 05:40:50;;;;;;;43.08;28.83;;;;;;;;;;8171686;28;20090;-95
2023/06/22 05:44:55;;;;;;;38.30;28.38;;;;;;;;;;8232895;28;20101;-96
2023/06/22 05:48:58;;;;;;;34.85;26.63;;;;;;;;;;8194075;28;20047;-95
2023/06/22 05:53:04;;;;;;;35.55;26.63;;;;;;;;;;8189994;28;20051;-96
2023/06/22 06:01:44;;;;;;;33.13;23.30;;;;;;;;;;8215498;28;20055;-96
2023/06/22 06:05:50;;;;;;;29.58;22.85;;;;;;;;;;8199440;29;20054;-96
2023/06/22 06:09:56;;;;;;;30.30;22.65;;;;;;;;;;8193872;29;20251;-96
2023/06/22 06:13:59;;;;;;;25.92;19.95;;;;;;;;;;8197953;28;20049;-96
2023/06/22 06:18:20;;;;;;;24.27;18.25;;;;;;;;;;8198949;28;20134;-96
2023/06/22 06:22:42;;;;;;;21.23;18.50;;;;;;;;;;8205132;28;20491;-96
2023/06/22 06:26:56;;;;;;;20.13;17.98;;;;;;;;;;8210889;28;20066;-95
2023/06/22 06:31:02;;;;;;;18.40;15.90;;;;;;;;;;8202032;28;20563;-96
2023/06/22 06:35:27;;;;;;;19.83;16.23;;;;;;;;;;8211269;28;20149;-96
2023/06/22 06:39:31;;;;;;;17.10;15.05;;;;;;;;;;8212132;28;20435;-96
2023/06/22 06:43:34;;;;;;;16.65;14.90;;;;;;;;;;8199081;28;20070;-96
2023/06/22 06:47:39;;;;;;;19.75;14.82;;;;;;;;;;8198344;28;20137;-96
2023/06/22 06:51:45;;;;;;;15.98;14.35;;;;;;;;;;8201928;29;20055;-96
2023/06/22 06:56:22;;;;;;;;;;;;;;;;;;;;;
2023/06/22 07:00:55;;;;;;;14.32;12.93;;;;;;;;;;8234515;23;20125;-95
2023/06/22 07:09:23;;;;;;;12.52;10.80;;;;;;;;;;8220059;28;20065;-95
2023/06/22 07:13:38;;;;;;;12.23;10.88;;;;;;;;;;8226601;28;20063;-95
2023/06/22 07:17:42;;;;;;;11.02;9.82;;;;;;;;;;8224888;28;20704;-96
2023/06/22 07:26:39;;;;;;;12.70;11.13;;;;;;;;;;8224749;23;20055;-96
2023/06/22 07:36:02;;;;;;;12.70;9.15;;;;;;;;;;8253639;23;20149;-96
2023/06/22 07:40:10;;;;;;;10.88;9.73;;;;;;;;;;8224707;28;20059;-96
2023/06/22 07:44:33;;;;;;;13.68;9.70;;;;;;;;;;8217442;28;20084;-96
2023/06/22 07:48:59;;;;;;;11.70;8.98;;;;;;;;;;8235415;28;20065;-96
2023/06/22 07:53:18;;;;;;;10.70;7.90;;;;;;;;;;8209012;28;20082;-96
2023/06/22 07:58:00;;;;;;;8.65;7.82;;;;;;;;;;8217220;28;20059;-96
2023/06/22 08:06:27;;;;;;;9.98;7.57;;;;;;;;;;8205352;29;20062;-96
2023/06/22 08:10:31;;;;;;;11.63;7.30;;;;;;;;;;8218572;29;20067;-96
2023/06/22 08:14:45;;;;;;;9.65;6.43;;;;;;;;;;8183551;29;20063;-96
2023/06/22 08:19:24;;;;;;;7.20;5.90;;;;;;;;;;8186930;29;20063;-96
2023/06/22 08:23:41;;;;;;;9.13;5.57;;;;;;;;;;8093707;29;20148;-96
2023/06/22 08:28:12;;;;;;;7.93;5.90;;;;;;;;;;8095895;29;20518;-96
2023/06/22 08:32:32;;;;;;;8.25;5.80;;;;;;;;;;8102748;29;20097;-96
2023/06/22 08:59:00;;;;;;;5.55;4.10;;;;;;;;;;4401201;23;20313;-96
2023/06/22 09:03:32;;;;;;;6.80;3.97;;;;;;;;;;8183874;29;20500;-96
2023/06/22 09:07:35;;;;;;;7.47;4.18;;;;;;;;;;8166201;29;20496;-96
2023/06/22 09:11:39;;;;;;;7.82;3.75;;;;;;;;;;8169099;29;20405;-95
2023/06/22 09:15:43;;;;;;;6.78;3.83;;;;;;;;;;8156554;29;20463;-96
2023/06/22 09:19:47;;;;;;;6.32;3.40;;;;;;;;;;8168192;29;20059;-96
2023/06/22 09:23:51;;;;;;;6.10;3.70;;;;;;;;;;8150634;29;20083;-95
2023/06/22 09:27:58;;;;;;;4.28;3.00;;;;;;;;;;8157490;29;20127;-96
2023/06/22 09:32:02;;;;;;;5.82;3.60;;;;;;;;;;8163797;29;20060;-95
2023/06/22 09:36:07;;;;;;;7.07;3.55;;;;;;;;;;8158498;29;20064;-95
2023/06/22 09:40:12;;;;;;;5.18;3.47;;;;;;;;;;8148728;29;20056;-95
2023/06/22 09:44:16;;;;;;;5.38;3.60;;;;;;;;;;8155813;29;20130;-95
2023/06/22 09:48:20;;;;;;;4.95;3.83;;;;;;;;;;8165903;29;20056;-94
2023/06/22 09:52:36;;;;;;;4.40;3.80;;;;;;;;;;8412242;23;20067;-93
2023/06/22 09:56:56;;;;;;;7.00;4.28;;;;;;;;;;8219543;28;20059;-94
2023/06/22 10:00:59;;;;;;;5.57;4.18;;;;;;;;;;8210766;28;20475;-96
2023/06/22 10:05:04;;;;;;;5.75;4.13;;;;;;;;;;8220538;28;20479;-93
2023/06/22 10:09:08;;;;;;;6.15;4.18;;;;;;;;;;8218246;28;20059;-94
2023/06/22 10:13:12;;;;;;;8.88;4.30;;;;;;;;;;8215246;28;20055;-95
2023/06/22 10:17:15;;;;;;;6.65;4.38;;;;;;;;;;8218514;28;20063;-95
2023/06/22 10:21:20;;;;;;;7.80;4.15;;;;;;;;;;8226654;28;20059;-95
2023/06/22 10:25:23;;;;;;;6.47;4.65;;;;;;;;;;8227370;28;20196;-96
2023/06/22 10:29:26;;;;;;;8.38;4.18;;;;;;;;;;8213819;23;20495;-95
2023/06/22 10:33:29;;;;;;;6.57;4.20;;;;;;;;;;8203320;28;20127;-95
2023/06/22 10:37:33;;;;;;;7.50;4.60;;;;;;;;;;8186835;28;20143;-96
2023/06/22 10:41:37;;;;;;;6.20;4.60;;;;;;;;;;8211658;28;20051;-95
2023/06/22 10:45:54;;;;;;;7.80;3.72;;;;;;;;;;8204185;28;20082;-95
2023/06/22 10:50:11;;;;;;;6.25;3.95;;;;;;;;;;8204922;28;20099;-95
2023/06/22 10:58:37;;;;;;;5.38;3.65;;;;;;;;;;8194404;28;20054;-96
2023/06/22 11:02:40;;;;;;;4.93;3.60;;;;;;;;;;8202148;28;20063;-94
2023/06/22 11:06:43;;;;;;;6.70;4.05;;;;;;;;;;8197111;23;20055;-94
2023/06/22 11:11:00;;;;;;;7.60;3.85;;;;;;;;;;8201920;28;20055;-96
2023/06/22 11:15:04;;;;;;;6.05;3.80;;;;;;;;;;8230382;23;20055;-95
2023/06/22 11:23:56;;;;;;;6.72;3.92;;;;;;;;;;8231702;28;20541;-93
2023/06/22 11:28:08;;;;;;;6.60;3.67;;;;;;;;;;8221198;28;20719;-96
2023/06/22 11:32:11;;;;;;;5.60;3.55;;;;;;;;;;8229530;28;20147;-96
2023/06/22 11:36:21;;;;;;;6.15;3.60;;;;;;;;;;8224441;28;20055;-95
2023/06/22 11:45:56;;;;;;;6.13;3.88;;;;;;;;;;8239871;23;20050;-96
2023/06/22 11:49:59;;;;;;;7.05;4.20;;;;;;;;;;8168710;29;20082;-94
2023/06/22 11:54:08;;;;;;;7.72;3.80;;;;;;;;;;8152632;29;20076;-94
2023/06/22 11:58:18;;;;;;;8.20;3.80;;;;;;;;;;8167341;29;20131;-94
2023/06/22 12:02:23;;;;;;;5.93;3.70;;;;;;;;;;8162634;29;20063;-93
2023/06/22 12:06:26;;;;;;;6.85;3.58;;;;;;;;;;8164527;29;20079;-94
2023/06/22 12:10:29;;;;;;;6.38;3.63;;;;;;;;;;8149362;29;20507;-92
2023/06/22 12:14:41;;;;;;;5.20;3.33;;;;;;;;;;8162751;29;20062;-96
2023/06/22 12:18:49;;;;;;;6.60;3.75;;;;;;;;;;8165389;29;20094;-93
2023/06/22 12:22:56;;;;;;;8.63;3.70;;;;;;;;;;8162221;29;20527;-94
2023/06/22 12:27:03;;;;;;;8.55;3.95;;;;;;;;;;8166564;29;20691;-95
2023/06/22 12:41:02;;;;;;;6.20;3.83;;;;;;;;;;8222622;23;20141;-93
2023/06/22 12:45:10;;;;;;;8.30;3.58;;;;;;;;;;8232488;28;20054;-93
2023/06/22 12:49:13;;;;;;;4.97;3.35;;;;;;;;;;8214565;28;20062;-92
2023/06/22 12:53:16;;;;;;;6.13;4.00;;;;;;;;;;8220668;28;20126;-92
2023/06/22 12:57:20;;;;;;;5.47;3.50;;;;;;;;;;8220425;28;20135;-93
2023/06/22 13:01:24;;;;;;;5.03;3.20;;;;;;;;;;8218049;28;20089;-96
2023/06/22 13:05:27;;;;;;;7.38;3.50;;;;;;;;;;8222729;28;20078;-93
2023/06/22 13:09:38;;;;;;;5.45;3.65;;;;;;;;;;8220201;28;20055;-95
2023/06/22 13:13:43;;;;;;;5.85;3.60;;;;;;;;;;8212559;28;20051;-94
2023/06/22 13:17:46;;;;;;;4.28;2.80;;;;;;;;;;8222914;28;20059;-95
2023/06/22 13:21:49;;;;;;;6.75;3.45;;;;;;;;;;8226484;28;20054;-96
2023/06/22 13:26:02;;;;;;;6.15;3.10;;;;;;;;;;8234371;28;20065;-95
2023/06/22 13:30:14;;;;;;;6.03;3.47;;;;;;;;;;8222585;28;20483;-93
2023/06/22 13:38:57;;;;;;;7.28;3.25;;;;;;;;;;8244086;28;20070;-95
2023/06/22 13:43:02;;;;;;;8.52;3.55;;;;;;;;;;8232961;23;20672;-96
2023/06/22 13:47:10;;;;;;;10.50;3.97;;;;;;;;;;8210101;28;20511;-94
2023/06/22 14:01:58;;;;;;;6.32;3.40;;;;;;;;;;8249517;23;20154;-95
2023/06/22 14:06:28;;;;;;;5.25;3.25;;;;;;;;;;8243536;28;20063;-96
2023/06/22 14:10:37;;;;;;;9.18;3.10;;;;;;;;;;8237624;28;20055;-96
2023/06/22 14:18:57;;;;;;;7.70;3.03;;;;;;;;;;8229710;28;20071;-96
2023/06/22 14:23:02;;;;;;;4.47;3.20;;;;;;;;;;8242731;28;20071;-96
2023/06/22 14:27:08;;;;;;;6.65;2.95;;;;;;;;;;8252155;28;20094;-96
2023/06/22 14:31:12;;;;;;;6.22;3.47;;;;;;;;;;8246001;28;20054;-96
2023/06/22 14:35:14;;;;;;;9.98;2.90;;;;;;;;;;8215141;28;20054;-96
2023/06/22 14:39:20;;;;;;;3.90;2.58;;;;;;;;;;8241968;28;20059;-96
2023/06/22 14:43:25;;;;;;;5.97;3.00;;;;;;;;;;8240739;28;20117;-95
2023/06/22 14:47:28;;;;;;;4.60;2.80;;;;;;;;;;8242615;28;20134;-94
2023/06/22 14:51:40;;;;;;;6.82;2.70;;;;;;;;;;8221367;28;20155;-96
2023/06/22 14:56:01;;;;;;;6.20;2.80;;;;;;;;;;8239943;28;20061;-94
2023/06/22 15:00:06;;;;;;;;;;;;;;;;;;8238618;28;20077;-96
2023/06/22 15:04:09;;;;;;;8.00;2.92;;;;;;;;;;8237772;28;19922;-95
2023/06/22 15:08:21;;;;;;;4.95;3.00;;;;;;;;;;8240399;28;20398;-95
2023/06/22 15:12:26;;;;;;;3.95;2.60;;;;;;;;;;8238901;28;20089;-94
2023/06/22 15:16:29;;;;;;;3.95;2.50;;;;;;;;;;8237968;28;20058;-96
2023/06/22 15:20:32;;;;;;;5.32;2.58;;;;;;;;;;8237120;28;20092;-95
2023/06/22 15:29:33;;;;;;;7.78;3.22;;;;;;;;;;8244280;28;20190;-95
2023/06/22 15:33:37;;;;;;;7.78;2.95;;;;;;;;;;8237223;28;20079;-95
2023/06/22 15:37:43;;;;;;;6.18;3.05;;;;;;;;;;8236672;28;20061;-95
2023/06/22 15:41:46;;;;;;;9.68;3.10;;;;;;;;;;8237249;28;20058;-96
2023/06/22 15:51:01;;;;;;;7.75;2.75;;;;;;;;;;8237226;23;20423;-95
2023/06/22 15:55:05;;;;;;;5.20;2.90;;;;;;;;;;8223726;28;20073;-95
2023/06/22 15:59:11;;;;;;;5.75;3.15;;;;;;;;;;8216551;28;20500;-94
2023/06/22 16:03:14;;;;;;;5.25;2.95;;;;;;;;;;8204211;28;20130;-95
2023/06/22 16:07:31;;;;;;;5.38;2.88;;;;;;;;;;8216511;28;20058;-95
2023/06/22 16:11:34;;;;;;;5.10;3.05;;;;;;;;;;8217217;28;20047;-95
2023/06/22 16:15:37;;;;;;;6.40;2.90;;;;;;;;;;8199769;28;20097;-95
2023/06/22 16:19:40;;;;;;;5.20;2.85;;;;;;;;;;8203369;28;20142;-95
2023/06/22 16:23:48;;;;;;;7.57;3.33;;;;;;;;;;8215818;28;20134;-95
2023/06/22 16:27:51;;;;;;;5.20;3.08;;;;;;;;;;8209470;28;20054;-94
2023/06/22 16:31:57;;;;;;;6.63;3.78;;;;;;;;;;8202773;28;20052;-95
2023/06/22 16:36:01;;;;;;;6.05;3.53;;;;;;;;;;8176054;28;20093;-94
2023/06/22 16:40:09;;;;;;;8.07;4.50;;;;;;;;;;8198053;28;20476;-95
2023/06/22 16:44:21;;;;;;;6.78;3.47;;;;;;;;;;8188018;29;20070;-96
2023/06/22 16:48:24;;;;;;;7.60;3.65;;;;;;;;;;8182620;28;20427;-95
2023/06/22 16:52:29;;;;;;;7.38;4.28;;;;;;;;;;8184539;28;20118;-95
2023/06/22 16:56:34;;;;;;;11.88;4.85;;;;;;;;;;8173531;28;20063;-95
2023/06/22 17:00:37;;;;;;;8.27;3.42;;;;;;;;;;8171510;28;20142;-94
2023/06/22 17:04:43;;;;;;;5.53;2.78;;;;;;;;;;8187391;28;20082;-95
2023/06/22 17:08:47;;;;;;;8.00;3.67;;;;;;;;;;8181316;28;20051;-95
2023/06/22 17:12:52;;;;;;;8.38;4.10;;;;;;;;;;8181212;28;20058;-95
2023/06/22 17:16:56;;;;;;;7.28;3.42;;;;;;;;;;8182854;28;20047;-95
2023/06/22 17:21:05;;;;;;;5.38;3.33;;;;;;;;;;8207097;28;20058;-95
2023/06/22 17:25:11;;;;;;;6.93;3.25;;;;;;;;;;8170882;28;20062;-94
2023/06/22 17:29:26;;;;;;;9.15;4.03;;;;;;;;;;8214513;28;20491;-93
2023/06/22 17:33:29;;;;;;;6.78;3.75;;;;;;;;;;8201333;28;20094;-94
2023/06/22 17:37:48;;;;;;;5.22;2.70;;;;;;;;;;8212000;28;20491;-94
2023/06/22 17:41:52;;;;;;;4.68;3.20;;;;;;;;;;8200435;28;20059;-94
2023/06/22 17:45:59;;;;;;;7.32;3.58;;;;;;;;;;8213370;28;20047;-94
2023/06/22 17:50:06;;;;;;;6.97;3.67;;;;;;;;;;8181779;28;20090;-95
2023/06/22 17:54:10;;;;;;;5.22;3.70;;;;;;;;;;8177911;28;20055;-93
2023/06/22 17:58:13;;;;;;;8.40;3.47;;;;;;;;;;8183425;28;20086;-94
2023/06/22 18:02:21;;;;;;;9.00;3.70;;;;;;;;;;8195794;28;20096;-94
2023/06/22 18:06:28;;;;;;;5.72;3.58;;;;;;;;;;8183038;28;20087;-95
2023/06/22 18:10:41;;;;;;;5.70;3.50;;;;;;;;;;8178512;28;20412;-95
2023/06/22 18:14:48;;;;;;;6.00;3.70;;;;;;;;;;8194574;28;20055;-95
2023/06/22 18:18:55;;;;;;;6.80;4.00;;;;;;;;;;8225095;23;20062;-94
2023/06/22 18:27:02;;;;;;;7.97;4.93;;;;;;;;;;8195739;23;20429;-94
2023/06/22 18:31:07;;;;;;;12.88;4.60;;;;;;;;;;8162607;29;20082;-94
2023/06/22 18:35:47;;;;;;;8.40;4.72;;;;;;;;;;8188808;23;20610;-94
2023/06/22 18:39:54;;;;;;;14.95;6.25;;;;;;;;;;8223760;28;20077;-93
2023/06/22 18:53:06;;;;;;;11.95;5.18;;;;;;;;;;8221066;23;20043;-95
2023/06/22 19:01:47;;;;;;;10.45;4.85;;;;;;;;;;8235058;23;20124;-94
2023/06/22 19:05:50;;;;;;;11.50;6.30;;;;;;;;;;8225210;23;20063;-94
2023/06/22 19:10:23;;;;;;;14.38;11.07;;;;;;;;;;8209761;23;20063;-94
2023/06/22 19:14:35;;;;;;;11.13;6.90;;;;;;;;;;8180825;28;20429;-95
2023/06/22 19:18:55;;;;;;;9.60;5.55;;;;;;;;;;8190077;29;20106;-94
2023/06/22 19:22:59;;;;;;;62.42;18.58;;;;;;;;;;8202193;28;20058;-94
2023/06/22 19:27:02;;;;;;;14.98;7.90;;;;;;;;;;8202620;28;20662;-95
2023/06/22 19:31:08;;;;;;;12.90;6.82;;;;;;;;;;8223736;23;20074;-94
2023/06/22 19:35:36;;;;;;;11.63;6.30;;;;;;;;;;8199910;28;20067;-95
2023/06/22 19:39:42;;;;;;;11.95;6.47;;;;;;;;;;8222684;23;20062;-93
2023/06/22 19:44:35;;;;;;;9.18;5.97;;;;;;;;;;8232883;28;20493;-96
2023/06/22 19:48:57;;;;;;;8.70;6.13;;;;;;;;;;8226112;28;20525;-94
2023/06/22 19:53:11;;;;;;;8.35;6.05;;;;;;;;;;8223533;28;20191;-95
2023/06/22 19:57:15;;;;;;;8.38;6.13;;;;;;;;;;8236861;28;20073;-95
2023/06/22 20:01:18;;;;;;;8.85;6.32;;;;;;;;;;8200333;28;20150;-95
2023/06/22 20:05:42;;;;;;;9.27;6.68;;;;;;;;;;8233903;28;20051;-93
2023/06/22 20:14:06;;;;;;;11.95;7.60;;;;;;;;;;8214935;28;20536;-95
2023/06/22 20:18:10;;;;;;;11.85;7.50;;;;;;;;;;8233712;28;20062;-96
2023/06/22 20:26:48;;;;;;;14.75;7.47;;;;;;;;;;8214477;28;20583;-95
2023/06/22 20:31:05;;;;;;;11.63;7.60;;;;;;;;;;8216196;28;20138;-95
2023/06/22 20:35:09;;;;;;;11.40;8.43;;;;;;;;;;8188600;28;20061;-95
2023/06/22 20:39:14;;;;;;;10.73;7.68;;;;;;;;;;8204692;28;20055;-94
2023/06/22 20:43:17;;;;;;;12.80;7.90;;;;;;;;;;8205622;28;20606;-96
2023/06/22 20:47:21;;;;;;;10.30;7.45;;;;;;;;;;8232489;28;20057;-94
2023/06/22 20:51:32;;;;;;;12.00;7.60;;;;;;;;;;8203117;29;20591;-94
2023/06/22 20:55:43;;;;;;;11.20;7.55;;;;;;;;;;8188782;28;20062;-95
2023/06/22 20:59:47;;;;;;;11.00;7.47;;;;;;;;;;8224119;28;20081;-94
2023/06/22 21:03:50;;;;;;;12.13;7.47;;;;;;;;;;8207088;28;20051;-94
2023/06/22 21:07:54;;;;;;;11.18;7.80;;;;;;;;;;8215358;23;20051;-94
2023/06/22 21:16:18;;;;;;;13.60;7.78;;;;;;;;;;8209331;28;20059;-95
2023/06/22 21:20:27;;;;;;;10.65;7.80;;;;;;;;;;8202461;28;20439;-95
2023/06/22 21:24:30;;;;;;;10.80;7.38;;;;;;;;;;8200689;28;20137;-94
2023/06/22 21:28:51;;;;;;;11.65;7.60;;;;;;;;;;8212303;28;20051;-95
2023/06/22 21:32:54;;;;;;;15.43;7.88;;;;;;;;;;8192614;28;20460;-94
2023/06/22 21:36:57;;;;;;;11.48;7.55;;;;;;;;;;8222132;23;20086;-95
2023/06/22 21:41:29;;;;;;;12.75;7.88;;;;;;;;;;8231028;23;20050;-95
2023/06/22 21:45:34;;;;;;;16.55;8.25;;;;;;;;;;8233767;28;20158;-95
2023/06/22 21:49:40;;;;;;;12.90;8.45;;;;;;;;;;8233808;28;20145;-95
2023/06/22 21:53:56;;;;;;;12.93;8.00;;;;;;;;;;8233726;28;20058;-95
2023/06/22 21:58:08;;;;;;;14.63;7.80;;;;;;;;;;8234049;28;20074;-94
2023/06/22 22:02:12;;;;;;;15.13;8.20;;;;;;;;;;8216972;28;20055;-94
2023/06/22 22:06:29;;;;;;;16.00;8.60;;;;;;;;;;8222872;28;20496;-95
2023/06/22 22:10:36;;;;;;;11.82;7.78;;;;;;;;;;8219589;23;20060;-95
2023/06/22 22:14:40;;;;;;;13.18;7.75;;;;;;;;;;8245125;23;20137;-95
2023/06/22 22:18:46;;;;;;;15.00;9.45;;;;;;;;;;8239728;28;20059;-95
2023/06/22 22:22:49;;;;;;;12.73;9.00;;;;;;;;;;8239919;28;20141;-95
2023/06/22 22:27:05;;;;;;;12.20;8.10;;;;;;;;;;8232626;28;20066;-96
2023/06/22 22:31:08;;;;;;;10.57;7.43;;;;;;;;;;8219234;28;20066;-95
2023/06/22 22:35:33;;;;;;;12.45;8.23;;;;;;;;;;8238936;28;20546;-95
2023/06/22 22:39:38;;;;;;;14.48;8.95;;;;;;;;;;8222081;28;20142;-94
2023/06/22 22:43:44;;;;;;;11.57;8.48;;;;;;;;;;8239223;28;20065;-96
2023/06/22 22:47:47;;;;;;;12.93;8.82;;;;;;;;;;8239103;28;20081;-95
2023/06/22 22:51:52;;;;;;;11.55;7.65;;;;;;;;;;8222278;28;20073;-94
2023/06/22 22:56:01;;;;;;;14.40;9.50;;;;;;;;;;8226303;28;20061;-94
2023/06/22 23:00:30;;;;;;;14.02;8.57;;;;;;;;;;8219292;23;20059;-95
2023/06/22 23:04:33;;;;;;;13.65;9.00;;;;;;;;;;8206957;29;20055;-96
2023/06/22 23:08:38;;;;;;;14.27;9.38;;;;;;;;;;8194151;29;20195;-94
2023/06/22 23:12:50;;;;;;;15.27;8.90;;;;;;;;;;8206913;29;20126;-95
2023/06/22 23:16:56;;;;;;;14.73;8.77;;;;;;;;;;8189326;28;20063;-95
2023/06/22 23:20:59;;;;;;;15.18;7.88;;;;;;;;;;8206501;29;20051;-96
2023/06/22 23:25:29;;;;;;;14.90;9.20;;;;;;;;;;8223867;23;20154;-96
2023/06/22 23:29:33;;;;;;;12.90;9.07;;;;;;;;;;8226371;23;20141;-95
2023/06/22 23:39:06;;;;;;;12.02;8.20;;;;;;;;;;8189544;29;20114;-96
2023/06/22 23:43:10;;;;;;;11.70;8.07;;;;;;;;;;8206185;29;20467;-95
2023/06/22 23:47:14;;;;;;;11.43;8.27;;;;;;;;;;8206001;29;20060;-95
2023/06/22 23:51:17;;;;;;;13.55;9.48;;;;;;;;;;8206639;29;20412;-96
2023/06/22 23:55:23;;;;;;;14.65;8.80;;;;;;;;;;8206899;28;20063;-96
2023/06/22 23:59:27;;;;;;;17.70;9.15;;;;;;;;;;8206806;28;20059;-95
